createdAt,value
2019-02-24T00:00:52.654Z,1013.98
2019-02-24T00:01:52.635Z,1013.96
2019-02-24T00:02:52.615Z,1013.98
2019-02-24T00:03:54.607Z,1013.98
2019-02-24T00:04:52.573Z,1014.02
2019-02-24T00:05:52.548Z,1014.00
2019-02-24T00:06:52.527Z,1014.01
2019-02-24T00:07:52.507Z,1013.97
2019-02-24T00:08:52.500Z,1014.00
2019-02-24T00:09:52.466Z,1013.98
2019-02-24T00:10:52.451Z,1014.04
2019-02-24T00:11:52.424Z,1014.01
2019-02-24T00:12:52.409Z,1013.97
2019-02-24T00:13:52.378Z,1014.01
2019-02-24T00:14:52.364Z,1013.98
2019-02-24T00:15:52.343Z,1013.98
2019-02-24T00:16:52.322Z,1013.99
2019-02-24T00:17:52.299Z,1013.97
2019-02-24T00:18:52.277Z,1013.95
2019-02-24T00:19:52.258Z,1013.89
2019-02-24T00:20:52.232Z,1013.91
2019-02-24T00:21:52.215Z,1013.89
2019-02-24T00:22:52.203Z,1013.87
2019-02-24T00:23:52.168Z,1013.83
2019-02-24T00:24:52.149Z,1013.79
2019-02-24T00:25:52.133Z,1013.83
2019-02-24T00:26:52.112Z,1013.85
2019-02-24T00:27:52.084Z,1013.82
2019-02-24T00:28:52.062Z,1013.82
2019-02-24T00:29:52.048Z,1013.77
2019-02-24T00:30:52.027Z,1013.78
2019-02-24T00:31:52.006Z,1013.79
2019-02-24T00:32:51.977Z,1013.75
2019-02-24T00:33:51.956Z,1013.75
2019-02-24T00:34:51.936Z,1013.74
2019-02-24T00:35:51.917Z,1013.79
2019-02-24T00:36:51.898Z,1013.73
2019-02-24T00:37:51.871Z,1013.67
2019-02-24T00:38:51.859Z,1013.74
2019-02-24T00:39:51.831Z,1013.77
2019-02-24T00:40:51.811Z,1013.77
2019-02-24T00:41:51.799Z,1013.73
2019-02-24T00:42:51.772Z,1013.74
2019-02-24T00:43:51.747Z,1013.78
2019-02-24T00:44:51.725Z,1013.76
2019-02-24T00:45:51.700Z,1013.76
2019-02-24T00:46:51.693Z,1013.74
2019-02-24T00:47:51.661Z,1013.78
2019-02-24T00:48:51.639Z,1013.79
2019-02-24T00:49:51.624Z,1013.75
2019-02-24T00:50:51.596Z,1013.74
2019-02-24T00:51:51.578Z,1013.77
2019-02-24T00:52:51.555Z,1013.80
2019-02-24T00:53:51.534Z,1013.79
2019-02-24T00:54:51.530Z,1013.77
2019-02-24T00:55:51.552Z,1013.77
2019-02-24T00:56:51.474Z,1013.80
2019-02-24T00:57:51.450Z,1013.81
2019-02-24T00:58:51.432Z,1013.83
2019-02-24T00:59:51.457Z,1013.82
2019-02-24T01:00:51.432Z,1013.83
2019-02-24T01:01:51.366Z,1013.78
2019-02-24T01:02:51.344Z,1013.77
2019-02-24T01:03:51.327Z,1013.73
2019-02-24T01:04:51.303Z,1013.72
2019-02-24T01:05:51.280Z,1013.73
2019-02-24T01:06:51.258Z,1013.71
2019-02-24T01:07:51.240Z,1013.69
2019-02-24T01:08:51.226Z,1013.77
2019-02-24T01:09:51.204Z,1013.72
2019-02-24T01:10:51.171Z,1013.76
2019-02-24T01:11:51.158Z,1013.75
2019-02-24T01:12:51.135Z,1013.73
2019-02-24T01:13:51.112Z,1013.78
2019-02-24T01:14:51.097Z,1013.76
2019-02-24T01:15:51.070Z,1013.75
2019-02-24T01:16:51.049Z,1013.76
2019-02-24T01:17:51.034Z,1013.78
2019-02-24T01:18:51.016Z,1013.76
2019-02-24T01:19:51.003Z,1013.79
2019-02-24T01:20:50.962Z,1013.78
2019-02-24T01:21:50.943Z,1013.79
2019-02-24T01:22:50.934Z,1013.79
2019-02-24T01:23:50.899Z,1013.81
2019-02-24T01:24:50.879Z,1013.77
2019-02-24T01:25:50.855Z,1013.79
2019-02-24T01:26:50.840Z,1013.78
2019-02-24T01:27:50.826Z,1013.78
2019-02-24T01:28:50.795Z,1013.80
2019-02-24T01:29:50.776Z,1013.83
2019-02-24T01:30:50.753Z,1013.86
2019-02-24T01:31:50.747Z,1013.80
2019-02-24T01:32:50.715Z,1013.84
2019-02-24T01:33:50.701Z,1013.83
2019-02-24T01:34:50.665Z,1013.84
2019-02-24T01:35:50.667Z,1013.88
2019-02-24T01:36:50.620Z,1013.85
2019-02-24T01:37:50.598Z,1013.91
2019-02-24T01:38:50.580Z,1013.93
2019-02-24T01:39:50.562Z,1013.93
2019-02-24T01:40:50.550Z,1013.87
2019-02-24T01:41:50.515Z,1013.89
2019-02-24T01:42:50.492Z,1013.88
2019-02-24T01:43:50.469Z,1013.88
2019-02-24T01:44:50.450Z,1013.86
2019-02-24T01:45:50.428Z,1013.88
2019-02-24T01:46:50.407Z,1013.85
2019-02-24T01:47:50.408Z,1013.85
2019-02-24T01:48:50.365Z,1013.84
2019-02-24T01:49:50.344Z,1013.89
2019-02-24T01:50:50.318Z,1013.90
2019-02-24T01:51:50.298Z,1013.89
2019-02-24T01:52:50.293Z,1013.87
2019-02-24T01:53:50.258Z,1013.87
2019-02-24T01:54:50.237Z,1013.91
2019-02-24T01:55:50.212Z,1013.90
2019-02-24T01:56:50.190Z,1013.91
2019-02-24T01:57:50.175Z,1013.86
2019-02-24T01:58:50.144Z,1013.90
2019-02-24T01:59:50.133Z,1013.83
2019-02-24T02:00:50.101Z,1013.86
2019-02-24T02:01:50.099Z,1013.83
2019-02-24T02:02:50.059Z,1013.85
2019-02-24T02:03:50.037Z,1013.84
2019-02-24T02:04:50.037Z,1013.81
2019-02-24T02:05:50.005Z,1013.81
2019-02-24T02:06:49.972Z,1013.83
2019-02-24T02:07:49.951Z,1013.81
2019-02-24T02:08:49.924Z,1013.83
2019-02-24T02:09:49.910Z,1013.81
2019-02-24T02:10:49.887Z,1013.78
2019-02-24T02:11:49.861Z,1013.77
2019-02-24T02:12:49.845Z,1013.83
2019-02-24T02:13:49.817Z,1013.80
2019-02-24T02:14:49.798Z,1013.79
2019-02-24T02:15:49.786Z,1013.76
2019-02-24T02:16:49.750Z,1013.77
2019-02-24T02:17:49.726Z,1013.78
2019-02-24T02:18:49.707Z,1013.78
2019-02-24T02:19:49.691Z,1013.72
2019-02-24T02:20:49.662Z,1013.75
2019-02-24T02:21:49.676Z,1013.74
2019-02-24T02:22:49.625Z,1013.70
2019-02-24T02:23:49.593Z,1013.69
2019-02-24T02:24:49.572Z,1013.71
2019-02-24T02:25:49.554Z,1013.70
2019-02-24T02:26:49.542Z,1013.67
2019-02-24T02:27:49.507Z,1013.68
2019-02-24T02:28:49.488Z,1013.66
2019-02-24T02:29:49.465Z,1013.67
2019-02-24T02:30:49.441Z,1013.67
2019-02-24T02:31:49.426Z,1013.70
2019-02-24T02:32:49.393Z,1013.66
2019-02-24T02:33:49.394Z,1013.67
2019-02-24T02:34:49.352Z,1013.69
2019-02-24T02:35:49.353Z,1013.76
2019-02-24T02:36:49.324Z,1013.73
2019-02-24T02:37:49.296Z,1013.73
2019-02-24T02:38:49.266Z,1013.73
2019-02-24T02:39:49.251Z,1013.75
2019-02-24T02:40:49.220Z,1013.73
2019-02-24T02:41:49.211Z,1013.73
2019-02-24T02:42:49.172Z,1013.69
2019-02-24T02:43:49.159Z,1013.72
2019-02-24T02:44:49.148Z,1013.67
2019-02-24T02:45:49.119Z,1013.65
2019-02-24T02:46:49.096Z,1013.67
2019-02-24T02:47:49.085Z,1013.67
2019-02-24T02:48:49.041Z,1013.71
2019-02-24T02:49:49.032Z,1013.67
2019-02-24T02:50:49.013Z,1013.66
2019-02-24T02:51:48.990Z,1013.68
2019-02-24T02:52:48.964Z,1013.64
2019-02-24T02:53:48.936Z,1013.66
2019-02-24T02:54:48.899Z,1013.67
2019-02-24T02:55:48.890Z,1013.66
2019-02-24T02:56:48.865Z,1013.69
2019-02-24T02:57:48.850Z,1013.65
2019-02-24T02:58:54.449Z,1013.72
2019-02-24T02:59:48.794Z,1013.71
2019-02-24T03:00:48.771Z,1013.77
2019-02-24T03:01:48.750Z,1013.77
2019-02-24T03:02:48.725Z,1013.80
2019-02-24T03:03:48.707Z,1013.80
2019-02-24T03:04:48.692Z,1013.79
2019-02-24T03:05:48.662Z,1013.72
2019-02-24T03:06:48.637Z,1013.73
2019-02-24T03:07:48.613Z,1013.75
2019-02-24T03:08:48.693Z,1013.74
2019-02-24T03:09:48.569Z,1013.75
2019-02-24T03:10:48.543Z,1013.72
2019-02-24T03:11:48.526Z,1013.72
2019-02-24T03:12:48.492Z,1013.72
2019-02-24T03:13:48.517Z,1013.70
2019-02-24T03:14:48.473Z,1013.71
2019-02-24T03:15:48.429Z,1013.68
2019-02-24T03:16:48.413Z,1013.71
2019-02-24T03:17:48.393Z,1013.69
2019-02-24T03:18:48.365Z,1013.71
2019-02-24T03:19:48.360Z,1013.74
2019-02-24T03:20:48.317Z,1013.77
2019-02-24T03:21:48.295Z,1013.75
2019-02-24T03:22:48.270Z,1013.76
2019-02-24T03:23:48.257Z,1013.73
2019-02-24T03:24:48.223Z,1013.74
2019-02-24T03:25:48.208Z,1013.72
2019-02-24T03:26:48.187Z,1013.71
2019-02-24T03:27:48.205Z,1013.70
2019-02-24T03:28:48.134Z,1013.70
2019-02-24T03:29:48.120Z,1013.72
2019-02-24T03:30:48.114Z,1013.74
2019-02-24T03:31:48.076Z,1013.70
2019-02-24T03:32:48.044Z,1013.69
2019-02-24T03:33:48.036Z,1013.65
2019-02-24T03:34:47.998Z,1013.64
2019-02-24T03:35:47.987Z,1013.67
2019-02-24T03:36:47.977Z,1013.67
2019-02-24T03:37:47.933Z,1013.66
2019-02-24T03:38:47.911Z,1013.64
2019-02-24T03:39:47.902Z,1013.64
2019-02-24T03:40:47.883Z,1013.65
2019-02-24T03:41:47.848Z,1013.66
2019-02-24T03:42:47.817Z,1013.65
2019-02-24T03:43:47.796Z,1013.67
2019-02-24T03:44:47.782Z,1013.63
2019-02-24T03:45:47.753Z,1013.63
2019-02-24T03:46:47.729Z,1013.66
2019-02-24T03:47:47.712Z,1013.61
2019-02-24T03:48:47.698Z,1013.65
2019-02-24T03:49:47.665Z,1013.61
2019-02-24T03:50:47.647Z,1013.66
2019-02-24T03:51:47.618Z,1013.63
2019-02-24T03:52:47.608Z,1013.62
2019-02-24T03:53:47.587Z,1013.65
2019-02-24T03:54:47.545Z,1013.64
2019-02-24T03:55:47.546Z,1013.65
2019-02-24T03:56:47.501Z,1013.67
2019-02-24T03:57:47.490Z,1013.60
2019-02-24T03:58:47.463Z,1013.60
2019-02-24T03:59:47.442Z,1013.60
2019-02-24T04:00:47.418Z,1013.61
2019-02-24T04:01:47.407Z,1013.58
2019-02-24T04:02:47.373Z,1013.59
2019-02-24T04:03:47.350Z,1013.58
2019-02-24T04:04:47.321Z,1013.57
2019-02-24T04:05:47.296Z,1013.60
2019-02-24T04:06:47.279Z,1013.61
2019-02-24T04:07:47.254Z,1013.62
2019-02-24T04:08:48.751Z,1013.64
2019-02-24T04:09:47.210Z,1013.58
2019-02-24T04:10:47.183Z,1013.56
2019-02-24T04:11:47.181Z,1013.55
2019-02-24T04:12:47.144Z,1013.54
2019-02-24T04:13:47.117Z,1013.54
2019-02-24T04:14:47.103Z,1013.52
2019-02-24T04:15:47.082Z,1013.53
2019-02-24T04:16:47.061Z,1013.56
2019-02-24T04:17:47.027Z,1013.54
2019-02-24T04:18:47.000Z,1013.55
2019-02-24T04:19:46.981Z,1013.52
2019-02-24T04:20:46.954Z,1013.55
2019-02-24T04:21:46.937Z,1013.60
2019-02-24T04:22:46.908Z,1013.58
2019-02-24T04:23:46.891Z,1013.64
2019-02-24T04:24:46.865Z,1013.60
2019-02-24T04:25:46.844Z,1013.58
2019-02-24T04:26:46.830Z,1013.58
2019-02-24T04:27:46.801Z,1013.58
2019-02-24T04:28:46.784Z,1013.61
2019-02-24T04:29:46.759Z,1013.58
2019-02-24T04:30:46.732Z,1013.60
2019-02-24T04:31:46.707Z,1013.63
2019-02-24T04:32:46.701Z,1013.68
2019-02-24T04:33:46.662Z,1013.65
2019-02-24T04:34:46.649Z,1013.63
2019-02-24T04:35:46.621Z,1013.66
2019-02-24T04:36:46.611Z,1013.68
2019-02-24T04:37:46.581Z,1013.68
2019-02-24T04:38:46.548Z,1013.67
2019-02-24T04:39:46.523Z,1013.72
2019-02-24T04:40:46.522Z,1013.70
2019-02-24T04:41:46.482Z,1013.67
2019-02-24T04:42:46.460Z,1013.68
2019-02-24T04:43:46.434Z,1013.68
2019-02-24T04:44:46.412Z,1013.69
2019-02-24T04:45:46.386Z,1013.68
2019-02-24T04:46:46.385Z,1013.66
2019-02-24T04:47:46.345Z,1013.70
2019-02-24T04:48:46.321Z,1013.67
2019-02-24T04:49:46.301Z,1013.63
2019-02-24T04:50:46.279Z,1013.67
2019-02-24T04:51:46.255Z,1013.66
2019-02-24T04:52:46.237Z,1013.66
2019-02-24T04:53:46.211Z,1013.66
2019-02-24T04:54:46.186Z,1013.63
2019-02-24T04:55:46.162Z,1013.66
2019-02-24T04:56:46.141Z,1013.65
2019-02-24T04:57:46.116Z,1013.65
2019-02-24T04:58:46.090Z,1013.63
2019-02-24T04:59:46.091Z,1013.62
2019-02-24T05:00:46.072Z,1013.62
2019-02-24T05:01:46.021Z,1013.62
2019-02-24T05:02:46.043Z,1013.62
2019-02-24T05:03:45.998Z,1013.61
2019-02-24T05:04:45.957Z,1013.58
2019-02-24T05:05:45.944Z,1013.56
2019-02-24T05:06:45.912Z,1013.60
2019-02-24T05:07:45.906Z,1013.59
2019-02-24T05:08:45.884Z,1013.56
2019-02-24T05:09:45.848Z,1013.53
2019-02-24T05:10:45.822Z,1013.49
2019-02-24T05:11:45.820Z,1013.46
2019-02-24T05:12:45.783Z,1013.50
2019-02-24T05:13:45.763Z,1013.48
2019-02-24T05:14:45.728Z,1013.47
2019-02-24T05:15:45.711Z,1013.45
2019-02-24T05:16:45.685Z,1013.42
2019-02-24T05:17:45.694Z,1013.43
2019-02-24T05:18:45.633Z,1013.44
2019-02-24T05:19:45.619Z,1013.41
2019-02-24T05:20:45.590Z,1013.40
2019-02-24T05:21:45.584Z,1013.35
2019-02-24T05:22:45.553Z,1013.38
2019-02-24T05:23:45.526Z,1013.33
2019-02-24T05:24:45.514Z,1013.39
2019-02-24T05:25:45.483Z,1013.45
2019-02-24T05:26:45.456Z,1013.45
2019-02-24T05:27:45.428Z,1013.41
2019-02-24T05:28:45.413Z,1013.44
2019-02-24T05:29:46.410Z,1013.48
2019-02-24T05:30:45.358Z,1013.49
2019-02-24T05:31:45.341Z,1013.52
2019-02-24T05:32:45.312Z,1013.53
2019-02-24T05:33:45.304Z,1013.52
2019-02-24T05:34:45.277Z,1013.51
2019-02-24T05:35:45.269Z,1013.48
2019-02-24T05:36:45.237Z,1013.50
2019-02-24T05:37:45.211Z,1013.50
2019-02-24T05:38:45.178Z,1013.56
2019-02-24T05:39:45.156Z,1013.52
2019-02-24T05:40:45.137Z,1013.55
2019-02-24T05:41:45.116Z,1013.52
2019-02-24T05:42:45.094Z,1013.57
2019-02-24T05:43:45.073Z,1013.49
2019-02-24T05:44:45.043Z,1013.53
2019-02-24T05:45:45.012Z,1013.55
2019-02-24T05:46:44.997Z,1013.53
2019-02-24T05:47:44.975Z,1013.52
2019-02-24T05:48:44.955Z,1013.51
2019-02-24T05:49:44.936Z,1013.52
2019-02-24T05:50:44.920Z,1013.56
2019-02-24T05:51:44.889Z,1013.60
2019-02-24T05:52:44.858Z,1013.56
2019-02-24T05:53:44.845Z,1013.60
2019-02-24T05:54:44.823Z,1013.66
2019-02-24T05:55:44.802Z,1013.62
2019-02-24T05:56:44.778Z,1013.66
2019-02-24T05:57:44.748Z,1013.69
2019-02-24T05:58:44.723Z,1013.66
2019-02-24T05:59:52.803Z,1013.67
2019-02-24T06:00:44.676Z,1013.68
2019-02-24T06:01:44.668Z,1013.64
2019-02-24T06:02:44.629Z,1013.63
2019-02-24T06:03:44.646Z,1013.66
2019-02-24T06:04:44.589Z,1013.69
2019-02-24T06:05:44.571Z,1013.68
2019-02-24T06:06:44.583Z,1013.71
2019-02-24T06:07:44.521Z,1013.73
2019-02-24T06:08:44.523Z,1013.71
2019-02-24T06:09:44.474Z,1013.71
2019-02-24T06:10:44.525Z,1013.69
2019-02-24T06:11:44.435Z,1013.75
2019-02-24T06:12:44.488Z,1013.77
2019-02-24T06:13:44.407Z,1013.81
2019-02-24T06:14:44.456Z,1013.81
2019-02-24T06:15:44.343Z,1013.80
2019-02-24T06:16:44.355Z,1013.82
2019-02-24T06:17:44.304Z,1013.76
2019-02-24T06:18:44.280Z,1013.81
2019-02-24T06:19:44.255Z,1013.80
2019-02-24T06:20:44.232Z,1013.81
2019-02-24T06:21:44.214Z,1013.77
2019-02-24T06:22:44.190Z,1013.80
2019-02-24T06:23:44.165Z,1013.80
2019-02-24T06:24:44.143Z,1013.77
2019-02-24T06:25:44.141Z,1013.79
2019-02-24T06:26:44.095Z,1013.79
2019-02-24T06:27:44.082Z,1013.76
2019-02-24T06:28:44.067Z,1013.79
2019-02-24T06:29:44.063Z,1013.84
2019-02-24T06:30:44.018Z,1013.85
2019-02-24T06:31:43.985Z,1013.88
2019-02-24T06:32:43.963Z,1013.86
2019-02-24T06:33:43.943Z,1013.86
2019-02-24T06:34:43.920Z,1013.90
2019-02-24T06:35:43.901Z,1013.89
2019-02-24T06:36:43.875Z,1013.89
2019-02-24T06:37:43.861Z,1013.90
2019-02-24T06:38:43.842Z,1013.95
2019-02-24T06:39:43.811Z,1013.90
2019-02-24T06:40:43.806Z,1013.88
2019-02-24T06:41:43.784Z,1013.87
2019-02-24T06:42:43.778Z,1013.79
2019-02-24T06:43:43.725Z,1013.83
2019-02-24T06:44:43.706Z,1013.80
2019-02-24T06:45:43.681Z,1013.80
2019-02-24T06:46:43.665Z,1013.76
2019-02-24T06:47:43.641Z,1013.78
2019-02-24T06:48:43.666Z,1013.80
2019-02-24T06:49:43.598Z,1013.79
2019-02-24T06:50:43.572Z,1013.77
2019-02-24T06:51:43.555Z,1013.80
2019-02-24T06:52:43.528Z,1013.81
2019-02-24T06:53:43.512Z,1013.82
2019-02-24T06:54:43.492Z,1013.86
2019-02-24T06:55:43.478Z,1013.77
2019-02-24T06:56:43.464Z,1013.82
2019-02-24T06:57:43.424Z,1013.84
2019-02-24T06:58:43.402Z,1013.86
2019-02-24T06:59:43.385Z,1013.84
2019-02-24T07:00:43.361Z,1013.86
2019-02-24T07:01:43.340Z,1013.81
2019-02-24T07:02:43.318Z,1013.85
2019-02-24T07:03:43.299Z,1013.91
2019-02-24T07:04:43.271Z,1013.89
2019-02-24T07:05:43.269Z,1013.82
2019-02-24T07:06:43.226Z,1013.85
2019-02-24T07:07:43.212Z,1013.86
2019-02-24T07:08:43.193Z,1013.87
2019-02-24T07:09:43.195Z,1013.94
2019-02-24T07:10:43.162Z,1013.87
2019-02-24T07:11:43.125Z,1013.91
2019-02-24T07:12:43.109Z,1013.89
2019-02-24T07:13:43.078Z,1013.86
2019-02-24T07:14:43.072Z,1013.90
2019-02-24T07:15:43.051Z,1013.85
2019-02-24T07:16:43.024Z,1013.83
2019-02-24T07:17:42.996Z,1013.82
2019-02-24T07:18:42.974Z,1013.81
2019-02-24T07:19:42.974Z,1013.81
2019-02-24T07:20:42.938Z,1013.86
2019-02-24T07:21:42.915Z,1013.82
2019-02-24T07:22:42.898Z,1013.83
2019-02-24T07:23:42.876Z,1013.79
2019-02-24T07:24:42.862Z,1013.85
2019-02-24T07:25:42.833Z,1013.85
2019-02-24T07:26:42.814Z,1013.82
2019-02-24T07:27:42.791Z,1013.78
2019-02-24T07:28:42.771Z,1013.82
2019-02-24T07:29:42.763Z,1013.82
2019-02-24T07:30:42.730Z,1013.80
2019-02-24T07:31:42.711Z,1013.82
2019-02-24T07:32:42.694Z,1013.81
2019-02-24T07:33:42.665Z,1013.81
2019-02-24T07:34:42.652Z,1013.79
2019-02-24T07:35:42.634Z,1013.80
2019-02-24T07:36:42.612Z,1013.81
2019-02-24T07:37:42.592Z,1013.77
2019-02-24T07:38:42.567Z,1013.82
2019-02-24T07:39:42.563Z,1013.83
2019-02-24T07:40:42.531Z,1013.80
2019-02-24T07:41:42.511Z,1013.78
2019-02-24T07:42:42.492Z,1013.75
2019-02-24T07:43:42.473Z,1013.78
2019-02-24T07:44:42.464Z,1013.79
2019-02-24T07:45:42.431Z,1013.75
2019-02-24T07:46:42.406Z,1013.77
2019-02-24T07:47:42.393Z,1013.76
2019-02-24T07:48:42.373Z,1013.74
2019-02-24T07:49:42.365Z,1013.74
2019-02-24T07:50:42.340Z,1013.72
2019-02-24T07:51:42.345Z,1013.74
2019-02-24T07:52:42.299Z,1013.76
2019-02-24T07:53:42.274Z,1013.79
2019-02-24T07:54:42.261Z,1013.80
2019-02-24T07:55:42.238Z,1013.81
2019-02-24T07:56:42.220Z,1013.85
2019-02-24T07:57:42.199Z,1013.85
2019-02-24T07:58:42.179Z,1013.88
2019-02-24T07:59:42.166Z,1013.85
2019-02-24T08:00:42.167Z,1013.84
2019-02-24T08:01:42.677Z,1013.82
2019-02-24T08:02:42.112Z,1013.82
2019-02-24T08:03:42.103Z,1013.81
2019-02-24T08:04:42.071Z,1013.81
2019-02-24T08:05:42.047Z,1013.88
2019-02-24T08:06:42.029Z,1013.89
2019-02-24T08:07:42.020Z,1013.91
2019-02-24T08:08:42.003Z,1013.88
2019-02-24T08:09:41.998Z,1013.93
2019-02-24T08:10:41.959Z,1013.92
2019-02-24T08:11:41.933Z,1013.94
2019-02-24T08:12:44.764Z,1013.99
2019-02-24T08:13:41.909Z,1013.92
2019-02-24T08:14:41.876Z,1013.96
2019-02-24T08:15:41.866Z,1013.99
2019-02-24T08:16:41.910Z,1013.96
2019-02-24T08:17:41.825Z,1014.03
2019-02-24T08:18:49.195Z,1014.01
2019-02-24T08:19:41.795Z,1014.00
2019-02-24T08:20:41.772Z,1013.97
2019-02-24T08:21:41.761Z,1013.97
2019-02-24T08:22:41.738Z,1013.97
2019-02-24T08:23:41.720Z,1013.97
2019-02-24T08:24:41.712Z,1013.93
2019-02-24T08:25:41.684Z,1013.93
2019-02-24T08:26:41.674Z,1013.98
2019-02-24T08:27:41.649Z,1013.95
2019-02-24T08:28:41.627Z,1013.97
2019-02-24T08:29:41.608Z,1013.88
2019-02-24T08:30:42.118Z,1013.85
2019-02-24T08:31:41.579Z,1013.89
2019-02-24T08:32:41.571Z,1013.86
2019-02-24T08:33:41.541Z,1013.87
2019-02-24T08:34:41.523Z,1013.81
2019-02-24T08:35:41.509Z,1013.90
2019-02-24T08:36:41.489Z,1013.86
2019-02-24T08:37:41.475Z,1013.87
2019-02-24T08:38:41.466Z,1013.86
2019-02-24T08:39:41.436Z,1013.88
2019-02-24T08:40:41.419Z,1013.87
2019-02-24T08:41:41.409Z,1013.85
2019-02-24T08:42:41.379Z,1013.93
2019-02-24T08:43:41.365Z,1013.95
2019-02-24T08:44:41.359Z,1013.95
2019-02-24T08:45:41.334Z,1013.93
2019-02-24T08:46:41.315Z,1013.99
2019-02-24T08:47:41.299Z,1014.00
2019-02-24T08:48:41.315Z,1013.95
2019-02-24T08:49:41.265Z,1013.99
2019-02-24T08:50:41.263Z,1013.99
2019-02-24T08:51:41.241Z,1014.00
2019-02-24T08:52:41.221Z,1013.99
2019-02-24T08:53:41.195Z,1013.97
2019-02-24T08:54:41.189Z,1013.97
2019-02-24T08:55:41.169Z,1013.96
2019-02-24T08:56:41.148Z,1013.93
2019-02-24T08:57:41.134Z,1013.92
2019-02-24T08:58:41.112Z,1013.93
2019-02-24T08:59:41.121Z,1013.88
2019-02-24T09:00:50.505Z,1013.88
2019-02-24T09:01:41.105Z,1013.94
2019-02-24T09:02:41.118Z,1013.94
2019-02-24T09:03:41.042Z,1013.95
2019-02-24T09:04:41.018Z,1013.97
2019-02-24T09:05:41.006Z,1014.04
2019-02-24T09:06:40.984Z,1014.09
2019-02-24T09:07:41.013Z,1014.07
2019-02-24T09:08:40.979Z,1014.06
2019-02-24T09:09:40.966Z,1014.10
2019-02-24T09:10:40.925Z,1014.12
2019-02-24T09:11:40.917Z,1014.11
2019-02-24T09:12:40.891Z,1014.13
2019-02-24T09:13:40.874Z,1014.15
2019-02-24T09:14:40.866Z,1014.16
2019-02-24T09:15:40.847Z,1014.20
2019-02-24T09:16:40.852Z,1014.20
2019-02-24T09:17:40.834Z,1014.23
2019-02-24T09:18:40.803Z,1014.22
2019-02-24T09:19:40.934Z,1014.21
2019-02-24T09:20:40.794Z,1014.24
2019-02-24T09:21:40.764Z,1014.27
2019-02-24T09:22:40.746Z,1014.26
2019-02-24T09:23:40.733Z,1014.28
2019-02-24T09:24:40.713Z,1014.24
2019-02-24T09:25:40.701Z,1014.30
2019-02-24T09:26:40.691Z,1014.28
2019-02-24T09:27:40.685Z,1014.30
2019-02-24T09:28:40.662Z,1014.29
2019-02-24T09:29:40.653Z,1014.33
2019-02-24T09:30:41.728Z,1014.35
2019-02-24T09:31:40.627Z,1014.32
2019-02-24T09:32:40.603Z,1014.31
2019-02-24T09:33:40.594Z,1014.38
2019-02-24T09:34:40.583Z,1014.33
2019-02-24T09:35:40.565Z,1014.33
2019-02-24T09:36:40.541Z,1014.38
2019-02-24T09:37:40.531Z,1014.39
2019-02-24T09:38:40.514Z,1014.39
2019-02-24T09:39:40.506Z,1014.37
2019-02-24T09:40:40.496Z,1014.42
2019-02-24T09:41:40.478Z,1014.39
2019-02-24T09:42:40.464Z,1014.38
2019-02-24T09:43:40.449Z,1014.36
2019-02-24T09:44:40.439Z,1014.35
2019-02-24T09:45:40.630Z,1014.36
2019-02-24T09:46:40.430Z,1014.37
2019-02-24T09:47:46.759Z,1014.34
2019-02-24T09:48:40.379Z,1014.39
2019-02-24T09:49:40.556Z,1014.32
2019-02-24T09:50:40.368Z,1014.29
2019-02-24T09:51:40.368Z,1014.30
2019-02-24T09:52:40.405Z,1014.27
2019-02-24T09:53:40.350Z,1014.25
2019-02-24T09:54:40.315Z,1014.27
2019-02-24T09:55:40.391Z,1014.22
2019-02-24T09:56:40.286Z,1014.22
2019-02-24T09:57:40.290Z,1014.23
2019-02-24T09:58:40.266Z,1014.22
2019-02-24T09:59:40.250Z,1014.19
2019-02-24T10:00:40.253Z,1014.23
2019-02-24T10:01:40.223Z,1014.21
2019-02-24T10:02:40.219Z,1014.24
2019-02-24T10:03:40.200Z,1014.25
2019-02-24T10:04:40.262Z,1014.24
2019-02-24T10:05:40.180Z,1014.27
2019-02-24T10:06:40.177Z,1014.28
2019-02-24T10:07:41.321Z,1014.30
2019-02-24T10:08:40.173Z,1014.28
2019-02-24T10:09:40.132Z,1014.31
2019-02-24T10:10:40.123Z,1014.30
2019-02-24T10:11:40.109Z,1014.29
2019-02-24T10:12:40.103Z,1014.28
2019-02-24T10:13:40.083Z,1014.24
2019-02-24T10:14:40.084Z,1014.26
2019-02-24T10:15:40.091Z,1014.33
2019-02-24T10:16:40.055Z,1014.36
2019-02-24T10:17:40.070Z,1014.33
2019-02-24T10:18:40.031Z,1014.27
2019-02-24T10:19:40.027Z,1014.34
2019-02-24T10:20:40.010Z,1014.35
2019-02-24T10:21:39.990Z,1014.34
2019-02-24T10:22:39.979Z,1014.34
2019-02-24T10:23:39.975Z,1014.41
2019-02-24T10:24:39.981Z,1014.41
2019-02-24T10:25:39.978Z,1014.41
2019-02-24T10:26:39.980Z,1014.43
2019-02-24T10:27:39.967Z,1014.40
2019-02-24T10:28:39.928Z,1014.40
2019-02-24T10:29:39.917Z,1014.46
2019-02-24T10:30:39.910Z,1014.48
2019-02-24T10:31:39.903Z,1014.46
2019-02-24T10:32:39.897Z,1014.53
2019-02-24T10:33:39.899Z,1014.51
2019-02-24T10:34:39.860Z,1014.48
2019-02-24T10:35:39.855Z,1014.52
2019-02-24T10:36:39.855Z,1014.55
2019-02-24T10:37:39.834Z,1014.59
2019-02-24T10:38:39.832Z,1014.54
2019-02-24T10:39:39.822Z,1014.53
2019-02-24T10:40:39.817Z,1014.54
2019-02-24T10:41:39.800Z,1014.52
2019-02-24T10:42:40.088Z,1014.53
2019-02-24T10:43:39.789Z,1014.48
2019-02-24T10:44:39.775Z,1014.47
2019-02-24T10:45:39.786Z,1014.47
2019-02-24T10:46:39.756Z,1014.49
2019-02-24T10:47:39.746Z,1014.51
2019-02-24T10:48:39.743Z,1014.58
2019-02-24T10:49:39.727Z,1014.58
2019-02-24T10:50:39.718Z,1014.61
2019-02-24T10:51:39.719Z,1014.60
2019-02-24T10:52:39.711Z,1014.58
2019-02-24T10:53:39.688Z,1014.57
2019-02-24T10:54:39.682Z,1014.53
2019-02-24T10:55:39.689Z,1014.52
2019-02-24T10:56:39.727Z,1014.52
2019-02-24T10:57:39.663Z,1014.51
2019-02-24T10:58:39.657Z,1014.59
2019-02-24T10:59:39.637Z,1014.52
2019-02-24T11:00:39.636Z,1014.48
2019-02-24T11:01:39.628Z,1014.46
2019-02-24T11:02:39.620Z,1014.40
2019-02-24T11:03:39.616Z,1014.42
2019-02-24T11:04:39.605Z,1014.41
2019-02-24T11:05:39.598Z,1014.39
2019-02-24T11:06:39.589Z,1014.37
2019-02-24T11:07:39.583Z,1014.39
2019-02-24T11:08:39.587Z,1014.42
2019-02-24T11:09:39.576Z,1014.36
2019-02-24T11:10:39.570Z,1014.37
2019-02-24T11:11:39.586Z,1014.36
2019-02-24T11:12:39.546Z,1014.39
2019-02-24T11:13:39.540Z,1014.43
2019-02-24T11:14:39.532Z,1014.40
2019-02-24T11:15:39.531Z,1014.46
2019-02-24T11:16:39.522Z,1014.49
2019-02-24T11:17:39.514Z,1014.50
2019-02-24T11:18:39.504Z,1014.49
2019-02-24T11:19:39.527Z,1014.45
2019-02-24T11:20:39.504Z,1014.43
2019-02-24T11:21:39.493Z,1014.45
2019-02-24T11:22:39.475Z,1014.45
2019-02-24T11:23:39.473Z,1014.45
2019-02-24T11:24:39.469Z,1014.43
2019-02-24T11:25:39.464Z,1014.41
2019-02-24T11:26:39.455Z,1014.39
2019-02-24T11:27:39.443Z,1014.41
2019-02-24T11:28:39.459Z,1014.42
2019-02-24T11:29:39.442Z,1014.39
2019-02-24T11:30:39.431Z,1014.34
2019-02-24T11:31:39.421Z,1014.35
2019-02-24T11:32:39.406Z,1014.34
2019-02-24T11:33:39.402Z,1014.34
2019-02-24T11:34:39.398Z,1014.37
2019-02-24T11:35:39.395Z,1014.33
2019-02-24T11:36:39.448Z,1014.38
2019-02-24T11:37:39.389Z,1014.29
2019-02-24T11:38:39.385Z,1014.28
2019-02-24T11:39:39.405Z,1014.24
2019-02-24T11:40:39.395Z,1014.25
2019-02-24T11:41:39.350Z,1014.20
2019-02-24T11:42:39.351Z,1014.23
2019-02-24T11:43:39.340Z,1014.20
2019-02-24T11:44:39.336Z,1014.19
2019-02-24T11:45:39.328Z,1014.18
2019-02-24T11:46:39.321Z,1014.10
2019-02-24T11:47:39.316Z,1014.09
2019-02-24T11:48:39.339Z,1014.06
2019-02-24T11:49:39.328Z,1014.12
2019-02-24T11:50:39.321Z,1014.08
2019-02-24T11:51:39.293Z,1014.11
2019-02-24T11:52:39.290Z,1014.10
2019-02-24T11:53:39.282Z,1014.08
2019-02-24T11:54:39.296Z,1014.04
2019-02-24T11:55:39.273Z,1014.10
2019-02-24T11:56:39.268Z,1014.09
2019-02-24T11:57:39.280Z,1014.13
2019-02-24T11:58:39.249Z,1014.13
2019-02-24T11:59:39.243Z,1014.11
2019-02-24T12:00:39.282Z,1014.09
2019-02-24T12:01:47.307Z,1014.15
2019-02-24T12:02:39.227Z,1014.09
2019-02-24T12:03:39.243Z,1014.11
2019-02-24T12:04:39.219Z,1014.12
2019-02-24T12:05:39.211Z,1014.13